Strona główna
METAR-TAF:

METAR-TAF

Lotnisko :

Meriden-Markham Municipal Airport

Meriden, Connecticut, Stany Zjednoczone

Szerokość geograficzna: 41-30-35N, Długość geograficzna: 072-49-40W, wysokość: 31 m

Aktualna obserwacja pogody

Raport powstał 36 minut temu, godzina 16:53 UTC
Wiatr 8 kt od północno-północny zachód
Temperatura 1°C
Wilgotność 75%
Ciśnienie 1016 hPa
Widzialność: 16.1 km
Rozproszone chmury na wysokości 1600 ft
Zachmurzenie całkowite na wysokości 2700 ft

METAR: KMMK 271653Z AUTO 34008KT 10SM SCT016 OVC027 01/M03 A3001 RMK AO2 SLP162 T00061028

czas: 12:29 (17:29 UTC)


TAF: brakujący

Obserwacja i prognoza pogody dla ponad 4000 lotnisk (raport METAR i TAF).

Dostępne stacje oznaczono żółtymi i czerwonymi punktami na mapie.

Najedź kursorem aby zobaczyć nazwę stacji.

Kliknij aby zobaczyć obserwacje i prognozy pogody.

Aby zmienić mapę: kliknij na zielony przycisk z czarnym krzyżykiem, aby powiększyć; na zielony przycisk z myślnikiem, aby pomniejszyć; na zielone strzałki, aby przejść do map sąsiednich.


METAR-TAF: